createdAt,value
2018-07-30T00:00:53.468Z,66.85
2018-07-30T00:02:02.116Z,66.85
2018-07-30T00:03:11.025Z,67.91
2018-07-30T00:04:19.668Z,69.1
2018-07-30T00:05:28.416Z,69.1
2018-07-30T00:06:37.360Z,69.49
2018-07-30T00:07:46.014Z,69.64
2018-07-30T00:08:54.657Z,69.64
2018-07-30T00:10:03.311Z,68.97
2018-07-30T00:11:11.961Z,68.77
2018-07-30T00:12:20.617Z,68.59
2018-07-30T00:13:29.261Z,68.77
2018-07-30T00:14:37.915Z,68.68
2018-07-30T00:15:46.564Z,68.49
2018-07-30T00:16:55.216Z,68.87
2018-07-30T00:18:04.139Z,68.68
2018-07-30T00:19:12.791Z,68.39
2018-07-30T00:20:21.440Z,68.19
2018-07-30T00:21:30.166Z,68.01
2018-07-30T00:22:38.741Z,68.1
2018-07-30T00:23:47.388Z,68.29
2018-07-30T00:24:56.040Z,68.39
2018-07-30T00:26:04.700Z,68.19
2018-07-30T00:27:13.344Z,67.91
2018-07-30T00:28:22.004Z,67.62
2018-07-30T00:29:30.652Z,67.91
2018-07-30T00:30:39.303Z,68.68
2018-07-30T00:31:47.950Z,69.26
2018-07-30T00:32:56.605Z,69.16
2018-07-30T00:34:05.260Z,68.1
2018-07-30T00:35:13.911Z,68.19
2018-07-30T00:36:22.565Z,69.55
2018-07-30T00:37:31.212Z,70.32
2018-07-30T00:38:39.860Z,70.7
2018-07-30T00:39:48.513Z,70.03
2018-07-30T00:40:57.164Z,69.16
2018-07-30T00:42:05.810Z,70.61
2018-07-30T00:43:14.461Z,71.96
2018-07-30T00:44:23.380Z,71.86
2018-07-30T00:45:32.037Z,72.25
2018-07-30T00:46:40.683Z,71.54
2018-07-30T00:47:49.335Z,71.25
2018-07-30T00:48:58.256Z,70.67
2018-07-30T00:50:06.910Z,71.34
2018-07-30T00:51:15.564Z,71.73
2018-07-30T00:52:24.209Z,71.73
2018-07-30T00:53:32.858Z,72.02
2018-07-30T00:54:41.505Z,70.57
2018-07-30T00:55:50.159Z,70.57
2018-07-30T00:56:58.810Z,70.48
2018-07-30T00:58:07.459Z,70.57
2018-07-30T00:59:16.104Z,70.96
2018-07-30T01:00:24.759Z,70.19
2018-07-30T01:01:33.409Z,71.15
2018-07-30T01:02:42.059Z,70.09
2018-07-30T01:03:50.705Z,69.71
2018-07-30T01:04:59.363Z,70.09
2018-07-30T01:06:08.011Z,69.8
2018-07-30T01:07:16.662Z,70.57
2018-07-30T01:08:25.309Z,70.57
2018-07-30T01:09:33.959Z,70
2018-07-30T01:10:42.612Z,70.44
2018-07-30T01:11:51.268Z,70.73
2018-07-30T01:13:00.181Z,71.64
2018-07-30T01:14:08.828Z,71.12
2018-07-30T01:15:17.477Z,71.41
2018-07-30T01:16:26.127Z,70.76
2018-07-30T01:17:34.780Z,70.64
2018-07-30T01:18:43.423Z,70.67
2018-07-30T01:19:52.071Z,70.48
2018-07-30T01:21:00.720Z,70.48
2018-07-30T01:22:09.377Z,70.57
2018-07-30T01:23:18.019Z,70.48
2018-07-30T01:24:26.670Z,70.57
2018-07-30T01:25:35.584Z,70.48
2018-07-30T01:26:44.521Z,70.57
2018-07-30T01:27:53.432Z,70.57
2018-07-30T01:29:02.079Z,70.48
2018-07-30T01:30:10.726Z,71.15
2018-07-30T01:31:19.373Z,71.44
2018-07-30T01:32:28.035Z,71.83
2018-07-30T01:33:36.682Z,71.64
2018-07-30T01:34:45.337Z,71.25
2018-07-30T01:35:53.979Z,71.15
2018-07-30T01:37:02.640Z,71.73
2018-07-30T01:38:11.283Z,72.02
2018-07-30T01:39:19.938Z,71.92
2018-07-30T01:40:28.579Z,71.83
2018-07-30T01:41:37.503Z,71.64
2018-07-30T01:42:46.149Z,72.12
2018-07-30T01:43:54.800Z,72.5
2018-07-30T01:45:03.444Z,71.83
2018-07-30T01:46:12.097Z,72.21
2018-07-30T01:47:20.752Z,72.31
2018-07-30T01:48:29.403Z,72.5
2018-07-30T01:49:38.056Z,72.69
2018-07-30T01:50:46.698Z,72.79
2018-07-30T01:51:55.351Z,72.6
2018-07-30T01:53:03.994Z,72.6
2018-07-30T01:54:13.187Z,72.5
2018-07-30T01:55:21.889Z,72.69
2018-07-30T01:56:30.481Z,72.02
2018-07-30T01:57:39.126Z,72.21
2018-07-30T01:58:47.786Z,73.37
2018-07-30T01:59:56.953Z,73.66
2018-07-30T02:01:05.604Z,74.05
2018-07-30T02:02:14.258Z,73.47
2018-07-30T02:03:22.916Z,73.85
2018-07-30T02:04:31.565Z,73.95
2018-07-30T02:05:40.214Z,73.95
2018-07-30T02:06:48.859Z,74.24
2018-07-30T02:07:57.770Z,74.14
2018-07-30T02:09:06.693Z,73.95
2018-07-30T02:10:15.343Z,73.95
2018-07-30T02:11:23.992Z,74.05
2018-07-30T02:12:32.631Z,74.33
2018-07-30T02:13:41.288Z,74.43
2018-07-30T02:14:49.933Z,74.43
2018-07-30T02:15:58.593Z,74.43
2018-07-30T02:17:07.229Z,74.14
2018-07-30T02:18:15.888Z,73.95
2018-07-30T02:19:24.533Z,73.66
2018-07-30T02:20:33.450Z,74.14
2018-07-30T02:21:42.098Z,73.95
2018-07-30T02:22:51.010Z,73.72
2018-07-30T02:23:59.659Z,73.72
2018-07-30T02:25:08.310Z,74.52
2018-07-30T02:26:16.963Z,74.3
2018-07-30T02:27:25.609Z,74.4
2018-07-30T02:28:34.258Z,74.49
2018-07-30T02:29:42.906Z,74.78
2018-07-30T02:30:51.821Z,74.78
2018-07-30T02:32:00.465Z,74.68
2018-07-30T02:33:09.112Z,75.36
2018-07-30T02:34:17.762Z,75.26
2018-07-30T02:35:26.418Z,75.16
2018-07-30T02:36:35.063Z,75.26
2018-07-30T02:37:43.719Z,76.13
2018-07-30T02:38:52.367Z,76.51
2018-07-30T02:40:01.029Z,75.84
2018-07-30T02:41:09.678Z,75.26
2018-07-30T02:42:18.592Z,76.13
2018-07-30T02:43:27.245Z,76.23
2018-07-30T02:44:35.894Z,76.23
2018-07-30T02:45:44.552Z,76.51
2018-07-30T02:46:53.740Z,76.61
2018-07-30T02:48:02.652Z,76.32
2018-07-30T02:49:11.570Z,75.55
2018-07-30T02:50:20.236Z,75.45
2018-07-30T02:51:28.885Z,75.16
2018-07-30T02:52:37.810Z,75.26
2018-07-30T02:53:46.726Z,75.16
2018-07-30T02:54:55.385Z,75.16
2018-07-30T02:56:04.044Z,75.65
2018-07-30T02:57:12.695Z,75.93
2018-07-30T02:58:21.343Z,76.13
2018-07-30T02:59:29.993Z,76.03
2018-07-30T03:00:38.904Z,76.42
2018-07-30T03:01:47.560Z,76.23
2018-07-30T03:02:56.208Z,76.8
2018-07-30T03:04:04.851Z,76.51
2018-07-30T03:05:13.502Z,76.42
2018-07-30T03:06:22.156Z,76.71
2018-07-30T03:07:30.810Z,77
2018-07-30T03:08:39.455Z,77.09
2018-07-30T03:09:48.105Z,77.28
2018-07-30T03:10:57.021Z,76.9
2018-07-30T03:12:05.680Z,76.8
2018-07-30T03:13:14.323Z,77.28
2018-07-30T03:14:22.973Z,76.8
2018-07-30T03:15:31.622Z,77.19
2018-07-30T03:16:40.276Z,77.38
2018-07-30T03:17:48.928Z,77.96
2018-07-30T03:18:57.843Z,77.86
2018-07-30T03:20:06.487Z,77.76
2018-07-30T03:21:15.137Z,78.15
2018-07-30T03:22:23.793Z,79.21
2018-07-30T03:23:32.452Z,79.21
2018-07-30T03:24:41.105Z,79.41
2018-07-30T03:25:49.749Z,78.73
2018-07-30T03:26:58.403Z,79.5
2018-07-30T03:28:07.048Z,79.89
2018-07-30T03:29:15.699Z,79.31
2018-07-30T03:30:24.343Z,79.41
2018-07-30T03:31:33.537Z,79.5
2018-07-30T03:32:42.186Z,79.31
2018-07-30T03:33:50.838Z,79.11
2018-07-30T03:34:59.481Z,79.46
2018-07-30T03:36:08.134Z,79.08
2018-07-30T03:37:16.789Z,79.27
2018-07-30T03:38:25.434Z,79.17
2018-07-30T03:39:34.084Z,79.27
2018-07-30T03:40:42.724Z,78.69
2018-07-30T03:41:51.377Z,78.79
2018-07-30T03:43:00.023Z,78.59
2018-07-30T03:44:08.678Z,78.5
2018-07-30T03:45:17.582Z,78.69
2018-07-30T03:46:26.235Z,77.25
2018-07-30T03:47:34.880Z,77.34
2018-07-30T03:48:43.805Z,77.92
2018-07-30T03:49:52.451Z,77.73
2018-07-30T03:51:01.102Z,77.34
2018-07-30T03:52:10.014Z,77.92
2018-07-30T03:53:18.670Z,77.83
2018-07-30T03:54:27.316Z,78.11
2018-07-30T03:55:35.962Z,78.54
2018-07-30T03:56:44.609Z,77.63
2018-07-30T03:57:53.275Z,77.83
2018-07-30T03:59:02.286Z,77.73
2018-07-30T04:00:10.980Z,78.11
2018-07-30T04:01:19.584Z,77.83
2018-07-30T04:02:28.223Z,77.53
2018-07-30T04:03:36.881Z,77.44
2018-07-30T04:04:45.525Z,75.99
2018-07-30T04:05:54.312Z,76.67
2018-07-30T04:07:03.092Z,76.48
2018-07-30T04:08:11.749Z,76.28
2018-07-30T04:09:20.394Z,76.48
2018-07-30T04:10:29.047Z,76.09
2018-07-30T04:11:37.688Z,76.48
2018-07-30T04:12:46.356Z,76.48
2018-07-30T04:13:54.993Z,75.8
2018-07-30T04:15:03.645Z,75.71
2018-07-30T04:16:12.295Z,75.51
2018-07-30T04:17:20.936Z,75.8
2018-07-30T04:18:29.588Z,76.38
2018-07-30T04:19:38.507Z,75.9
2018-07-30T04:20:47.147Z,75.51
2018-07-30T04:21:55.805Z,76.28
2018-07-30T04:23:04.451Z,76.96
2018-07-30T04:24:13.367Z,76.48
2018-07-30T04:25:22.007Z,76.57
2018-07-30T04:26:30.665Z,76.96
2018-07-30T04:27:39.311Z,76.48
2018-07-30T04:28:48.227Z,76.67
2018-07-30T04:29:56.867Z,76.67
2018-07-30T04:31:05.520Z,76.28
2018-07-30T04:32:14.175Z,75.51
2018-07-30T04:33:23.084Z,75.71
2018-07-30T04:34:31.735Z,75.61
2018-07-30T04:35:40.377Z,76.09
2018-07-30T04:36:49.033Z,75.9
2018-07-30T04:37:57.684Z,75.71
2018-07-30T04:39:06.606Z,74.88
2018-07-30T04:40:15.246Z,75.45
2018-07-30T04:41:23.902Z,75.26
2018-07-30T04:42:32.546Z,75.07
2018-07-30T04:43:41.253Z,75.16
2018-07-30T04:44:49.844Z,75.26
2018-07-30T04:45:58.494Z,75.45
2018-07-30T04:47:07.141Z,75.07
2018-07-30T04:48:15.801Z,76.23
2018-07-30T04:49:24.498Z,77.19
2018-07-30T04:50:33.099Z,76.71
2018-07-30T04:51:41.745Z,76.61
2018-07-30T04:52:50.392Z,76.8
2018-07-30T04:53:59.050Z,76.9
2018-07-30T04:55:07.695Z,76.51
2018-07-30T04:56:16.348Z,76.51
2018-07-30T04:57:24.982Z,76.51
2018-07-30T04:58:33.642Z,76.13
2018-07-30T04:59:42.283Z,76.13
2018-07-30T05:00:50.938Z,77.19
2018-07-30T05:01:59.580Z,76.61
2018-07-30T05:03:08.242Z,77.19
2018-07-30T05:04:16.888Z,76.9
2018-07-30T05:05:26.071Z,76.9
2018-07-30T05:06:34.720Z,77
2018-07-30T05:07:43.372Z,77
2018-07-30T05:08:52.287Z,77.58
2018-07-30T05:10:00.943Z,77
2018-07-30T05:11:09.614Z,76.61
2018-07-30T05:12:18.522Z,77
2018-07-30T05:13:27.438Z,76.84
2018-07-30T05:14:36.084Z,76.45
2018-07-30T05:15:44.746Z,76.17
2018-07-30T05:16:53.387Z,76.07
2018-07-30T05:18:02.300Z,75.78
2018-07-30T05:19:10.951Z,75.59
2018-07-30T05:20:19.881Z,74.52
2018-07-30T05:21:28.527Z,74.05
2018-07-30T05:22:37.178Z,75.2
2018-07-30T05:23:46.088Z,75.2
2018-07-30T05:24:54.742Z,75.2
2018-07-30T05:26:03.402Z,75.01
2018-07-30T05:27:12.323Z,76.17
2018-07-30T05:28:21.508Z,75.97
2018-07-30T05:29:30.155Z,76.75
2018-07-30T05:30:38.816Z,76.45
2018-07-30T05:31:47.467Z,76.26
2018-07-30T05:32:56.123Z,76.36
2018-07-30T05:34:05.032Z,76.36
2018-07-30T05:35:13.687Z,76.75
2018-07-30T05:36:22.367Z,76.45
2018-07-30T05:37:31.252Z,76.26
2018-07-30T05:38:39.898Z,76.75
2018-07-30T05:39:48.557Z,77.13
2018-07-30T05:40:57.201Z,77
2018-07-30T05:42:05.852Z,76.9
2018-07-30T05:43:14.497Z,77.38
2018-07-30T05:44:23.148Z,77.19
2018-07-30T05:45:31.793Z,77.38
2018-07-30T05:46:40.706Z,77.28
2018-07-30T05:47:49.358Z,76.84
2018-07-30T05:48:58.001Z,76.93
2018-07-30T05:50:06.937Z,76.65
2018-07-30T05:51:15.568Z,75.97
2018-07-30T05:52:24.231Z,75.97
2018-07-30T05:53:32.872Z,76.45
2018-07-30T05:54:41.784Z,75.88
2018-07-30T05:55:50.434Z,75.4
2018-07-30T05:56:59.349Z,74.82
2018-07-30T05:58:08.257Z,75.34
2018-07-30T05:59:16.935Z,75.34
2018-07-30T06:00:25.559Z,75.82
2018-07-30T06:01:34.218Z,75.72
2018-07-30T06:02:42.864Z,75.34
2018-07-30T06:03:51.514Z,75.14
2018-07-30T06:05:00.163Z,75.24
2018-07-30T06:06:08.810Z,74.66
2018-07-30T06:07:17.466Z,75.34
2018-07-30T06:08:26.118Z,75.24
2018-07-30T06:09:34.808Z,75.14
2018-07-30T06:10:43.413Z,75.24
2018-07-30T06:11:52.069Z,75.24
2018-07-30T06:13:00.718Z,74.95
2018-07-30T06:14:09.638Z,75.43
2018-07-30T06:15:18.297Z,74.79
2018-07-30T06:16:26.930Z,74.21
2018-07-30T06:17:35.582Z,74.21
2018-07-30T06:18:44.229Z,73.73
2018-07-30T06:19:52.893Z,73.93
2018-07-30T06:21:01.591Z,73.83
2018-07-30T06:22:10.186Z,73.73
2018-07-30T06:23:18.834Z,73.67
2018-07-30T06:24:27.484Z,73.48
2018-07-30T06:25:36.143Z,72.9
2018-07-30T06:26:44.795Z,72.42
2018-07-30T06:27:53.454Z,71.74
2018-07-30T06:29:02.094Z,72.13
2018-07-30T06:30:10.749Z,72.03
2018-07-30T06:31:19.395Z,71.97
2018-07-30T06:32:28.052Z,72.32
2018-07-30T06:33:36.693Z,71.88
2018-07-30T06:34:45.353Z,71.78
2018-07-30T06:35:54.000Z,71.3
2018-07-30T06:37:02.654Z,71.3
2018-07-30T06:38:11.295Z,70.23
2018-07-30T06:39:19.956Z,70.94
2018-07-30T06:40:28.876Z,71.23
2018-07-30T06:41:37.530Z,71.33
2018-07-30T06:42:46.185Z,70.65
2018-07-30T06:43:54.832Z,70.56
2018-07-30T06:45:03.486Z,69.88
2018-07-30T06:46:12.139Z,70.26
2018-07-30T06:47:20.795Z,70.26
2018-07-30T06:48:29.437Z,70.07
2018-07-30T06:49:38.091Z,70.26
2018-07-30T06:50:46.742Z,70.26
2018-07-30T06:51:55.402Z,69.62
2018-07-30T06:53:04.042Z,70.68
2018-07-30T06:54:12.697Z,70.68
2018-07-30T06:55:21.617Z,69.24
2018-07-30T06:56:30.546Z,68.75
2018-07-30T06:57:39.195Z,68.56
2018-07-30T06:58:47.839Z,69.92
2018-07-30T06:59:56.804Z,69.62
2018-07-30T07:01:05.459Z,68.46
2018-07-30T07:02:14.118Z,67.43
2018-07-30T07:03:22.897Z,67.72
2018-07-30T07:04:31.420Z,68.59
2018-07-30T07:05:40.592Z,68.88
2018-07-30T07:06:49.254Z,67.91
2018-07-30T07:07:57.899Z,68.11
2018-07-30T07:09:06.814Z,68.49
2018-07-30T07:10:15.455Z,67.91
2018-07-30T07:11:24.119Z,66.98
2018-07-30T07:12:32.769Z,68.91
2018-07-30T07:13:41.425Z,68.73
2018-07-30T07:14:50.071Z,67.56
2018-07-30T07:15:58.725Z,66.5
2018-07-30T07:17:07.377Z,65.34
2018-07-30T07:18:16.032Z,66.53
2018-07-30T07:19:24.688Z,66.53
2018-07-30T07:20:33.341Z,67.02
2018-07-30T07:21:42.422Z,67.11
2018-07-30T07:22:51.303Z,66.63
2018-07-30T07:24:00.222Z,64.59
2018-07-30T07:25:08.871Z,63.24
2018-07-30T07:26:17.790Z,62.07
2018-07-30T07:27:26.435Z,61.79
2018-07-30T07:28:35.093Z,61.82
2018-07-30T07:29:43.737Z,63.85
2018-07-30T07:30:52.659Z,61.91
2018-07-30T07:32:01.311Z,61.91
2018-07-30T07:33:09.966Z,62.4
2018-07-30T07:34:18.614Z,62.1
2018-07-30T07:35:27.271Z,61.82
2018-07-30T07:36:35.915Z,61.46
2018-07-30T07:37:44.830Z,60.88
2018-07-30T07:38:53.487Z,61.46
2018-07-30T07:40:02.142Z,61.26
2018-07-30T07:41:11.058Z,60.3
2018-07-30T07:42:19.710Z,61.75
2018-07-30T07:43:28.367Z,62.46
2018-07-30T07:44:37.065Z,63.23
2018-07-30T07:45:46.244Z,62.55
2018-07-30T07:46:54.892Z,58.87
2018-07-30T07:48:03.550Z,58.48
2018-07-30T07:49:12.204Z,57.03
2018-07-30T07:50:21.557Z,56.83
2018-07-30T07:51:30.028Z,58.03
2018-07-30T07:52:38.941Z,59.48
2018-07-30T07:53:47.595Z,59.67
2018-07-30T07:54:56.514Z,58.22
2018-07-30T07:56:05.427Z,56.09
2018-07-30T07:57:14.079Z,55.89
2018-07-30T07:58:22.730Z,55.89
2018-07-30T07:59:31.383Z,55.99
2018-07-30T08:00:40.043Z,55.31
2018-07-30T08:01:48.954Z,55.5
2018-07-30T08:02:57.608Z,56.89
2018-07-30T08:04:06.261Z,57.67
2018-07-30T08:05:14.920Z,58.34
2018-07-30T08:06:23.574Z,57.18
2018-07-30T08:07:32.218Z,55.82
2018-07-30T08:08:40.874Z,54.85
2018-07-30T08:09:49.708Z,53.78
2018-07-30T08:10:58.219Z,53.52
2018-07-30T08:12:06.839Z,53.49
2018-07-30T08:13:15.766Z,53.22
2018-07-30T08:14:24.421Z,54.1
2018-07-30T08:15:33.069Z,53.39
2018-07-30T08:16:41.722Z,53.2
2018-07-30T08:17:50.379Z,53.2
2018-07-30T08:18:59.040Z,53.97
2018-07-30T08:20:07.688Z,53.22
2018-07-30T08:21:16.344Z,52.94
2018-07-30T08:22:25.064Z,52.62
2018-07-30T08:23:33.655Z,52.74
2018-07-30T08:24:42.307Z,52.84
2018-07-30T08:25:50.960Z,52.55
2018-07-30T08:26:59.611Z,51.99
2018-07-30T08:28:08.534Z,51.6
2018-07-30T08:29:17.183Z,50.43
2018-07-30T08:30:25.837Z,51.4
2018-07-30T08:31:34.488Z,53.74
2018-07-30T08:32:43.400Z,52.11
2018-07-30T08:33:52.067Z,51.79
2018-07-30T08:35:00.982Z,50.46
2018-07-30T08:36:09.631Z,50.26
2018-07-30T08:37:18.280Z,49.97
2018-07-30T08:38:27.214Z,49.49
2018-07-30T08:39:35.872Z,49.71
2018-07-30T08:40:44.788Z,48.05
2018-07-30T08:41:53.698Z,47.69
2018-07-30T08:43:02.363Z,47.69
2018-07-30T08:44:11.014Z,47.69
2018-07-30T08:45:19.674Z,47.98
2018-07-30T08:46:28.323Z,48.85
2018-07-30T08:47:36.980Z,48.66
2018-07-30T08:48:45.684Z,48.07
2018-07-30T08:49:54.290Z,48.54
2018-07-30T08:51:02.947Z,49.22
2018-07-30T08:52:11.601Z,49.02
2018-07-30T08:53:20.250Z,50.78
2018-07-30T08:54:28.909Z,50.68
2018-07-30T08:55:38.354Z,50.87
2018-07-30T08:56:47.000Z,50.48
2018-07-30T08:57:55.654Z,49.58
2018-07-30T08:59:04.309Z,49.78
2018-07-30T09:00:12.971Z,49.22
2018-07-30T09:01:21.879Z,48.71
2018-07-30T09:02:30.538Z,49.02
2018-07-30T09:03:39.190Z,48.54
2018-07-30T09:04:47.848Z,48.83
2018-07-30T09:05:56.504Z,48.05
2018-07-30T09:07:05.184Z,47.76
2018-07-30T09:08:14.133Z,47.86
2018-07-30T09:09:22.785Z,47.27
2018-07-30T09:10:31.444Z,47.39
2018-07-30T09:11:40.095Z,47
2018-07-30T09:12:48.932Z,46.51
2018-07-30T09:13:57.399Z,46.32
2018-07-30T09:15:06.329Z,46.32
2018-07-30T09:16:14.978Z,45.25
2018-07-30T09:17:23.635Z,44.59
2018-07-30T09:18:32.538Z,44.69
2018-07-30T09:19:41.202Z,44.3
2018-07-30T09:20:49.856Z,45.47
2018-07-30T09:21:58.512Z,45.08
2018-07-30T09:23:07.159Z,44.89
2018-07-30T09:24:16.345Z,44.49
2018-07-30T09:25:25.003Z,43.71
2018-07-30T09:26:33.664Z,44.3
2018-07-30T09:27:42.319Z,44.2
2018-07-30T09:28:51.232Z,44.49
2018-07-30T09:29:59.890Z,44.59
2018-07-30T09:31:08.555Z,44.59
2018-07-30T09:32:17.215Z,44.2
2018-07-30T09:33:25.862Z,43.71
2018-07-30T09:34:34.522Z,43.71
2018-07-30T09:35:43.172Z,43.23
2018-07-30T09:36:51.834Z,43.62
2018-07-30T09:38:00.486Z,43.71
2018-07-30T09:39:09.201Z,44.01
2018-07-30T09:40:17.791Z,43.71
2018-07-30T09:41:26.455Z,43.81
2018-07-30T09:42:35.114Z,44.1
2018-07-30T09:43:44.019Z,43.71
2018-07-30T09:44:53.034Z,43.71
2018-07-30T09:46:01.994Z,43.62
2018-07-30T09:47:10.656Z,44.4
2018-07-30T09:48:19.305Z,44.01
2018-07-30T09:49:27.966Z,43.62
2018-07-30T09:50:36.691Z,44.1
2018-07-30T09:51:45.654Z,44.2
2018-07-30T09:52:54.315Z,43.84
2018-07-30T09:54:02.965Z,43.35
2018-07-30T09:55:11.621Z,44.23
2018-07-30T09:56:20.321Z,42.96
2018-07-30T09:57:28.929Z,43.25
2018-07-30T09:58:37.588Z,43.15
2018-07-30T09:59:46.493Z,42.47
2018-07-30T10:00:55.150Z,42.47
2018-07-30T10:02:04.069Z,42.38
2018-07-30T10:03:12.731Z,42.3
2018-07-30T10:04:21.659Z,42.66
2018-07-30T10:05:30.304Z,42.59
2018-07-30T10:06:38.966Z,42.57
2018-07-30T10:07:47.883Z,42.59
2018-07-30T10:08:56.547Z,42.69
2018-07-30T10:10:05.200Z,43.27
2018-07-30T10:11:13.851Z,41.91
2018-07-30T10:12:22.514Z,41.91
2018-07-30T10:13:31.174Z,42.2
2018-07-30T10:14:39.825Z,42.1
2018-07-30T10:15:48.482Z,42.3
2018-07-30T10:16:57.134Z,42.3
2018-07-30T10:18:05.865Z,41.73
2018-07-30T10:19:15.091Z,41.93
2018-07-30T10:20:23.748Z,41.93
2018-07-30T10:21:32.660Z,41.93
2018-07-30T10:22:41.312Z,42
2018-07-30T10:23:50.031Z,42.3
2018-07-30T10:24:59.003Z,42.49
2018-07-30T10:26:07.660Z,42.49
2018-07-30T10:27:16.609Z,42.12
2018-07-30T10:28:25.240Z,41.71
2018-07-30T10:29:34.160Z,42.1
2018-07-30T10:30:42.834Z,41.73
2018-07-30T10:31:51.903Z,41.25
2018-07-30T10:33:00.820Z,41.05
2018-07-30T10:34:09.472Z,41.73
2018-07-30T10:35:18.133Z,41.93
2018-07-30T10:36:27.044Z,41.25
2018-07-30T10:37:35.701Z,41.17
2018-07-30T10:38:44.626Z,41.27
2018-07-30T10:39:53.640Z,40.88
2018-07-30T10:41:02.582Z,41.27
2018-07-30T10:42:11.235Z,41.75
2018-07-30T10:43:19.889Z,41.17
2018-07-30T10:44:28.545Z,41.19
2018-07-30T10:45:37.205Z,40.7
2018-07-30T10:46:45.866Z,41.58
2018-07-30T10:47:54.785Z,41.48
2018-07-30T10:49:03.440Z,41.02
2018-07-30T10:50:12.099Z,39.75
2018-07-30T10:51:20.748Z,39.55
2018-07-30T10:52:29.408Z,39.65
2018-07-30T10:53:38.061Z,39.26
2018-07-30T10:54:46.724Z,39.67
2018-07-30T10:55:55.377Z,39.37
2018-07-30T10:57:04.035Z,39.47
2018-07-30T10:58:12.688Z,39.37
2018-07-30T10:59:21.353Z,40.63
2018-07-30T11:00:30.005Z,40.33
2018-07-30T11:01:38.661Z,41.11
2018-07-30T11:02:47.317Z,41.21
2018-07-30T11:03:55.967Z,40.99
2018-07-30T11:05:04.626Z,41.28
2018-07-30T11:06:13.285Z,42.16
2018-07-30T11:07:21.974Z,42.36
2018-07-30T11:08:30.623Z,41.95
2018-07-30T11:09:39.319Z,42.34
2018-07-30T11:10:48.256Z,42.83
2018-07-30T11:11:56.877Z,42.73
2018-07-30T11:13:05.788Z,41.87
2018-07-30T11:14:14.448Z,40.89
2018-07-30T11:15:23.108Z,40.5
2018-07-30T11:16:31.772Z,40.53
2018-07-30T11:17:40.425Z,39.65
2018-07-30T11:18:49.076Z,40.72
2018-07-30T11:19:57.733Z,40.84
2018-07-30T11:21:06.386Z,39.18
2018-07-30T11:22:15.051Z,39.69
2018-07-30T11:23:23.700Z,39.2
2018-07-30T11:24:32.361Z,39.39
2018-07-30T11:25:41.012Z,38.22
2018-07-30T11:26:49.676Z,37.83
2018-07-30T11:27:58.421Z,37.95
2018-07-30T11:29:07.370Z,38.43
2018-07-30T11:30:16.026Z,40.88
2018-07-30T11:31:24.844Z,39.41
2018-07-30T11:32:34.603Z,39.2
2018-07-30T11:33:43.516Z,39
2018-07-30T11:34:52.179Z,38.9
2018-07-30T11:36:01.135Z,40.66
2018-07-30T11:37:09.801Z,40.47
2018-07-30T11:38:18.454Z,40.17
2018-07-30T11:39:27.112Z,40.66
2018-07-30T11:40:36.022Z,40.74
2018-07-30T11:41:44.688Z,40.84
2018-07-30T11:42:53.670Z,41.11
2018-07-30T11:44:02.261Z,41.8
2018-07-30T11:45:10.910Z,41.21
2018-07-30T11:46:19.575Z,41.31
2018-07-30T11:47:28.227Z,42.48
2018-07-30T11:48:36.935Z,42.29
2018-07-30T11:49:45.534Z,43.16
2018-07-30T11:50:54.458Z,44.43
2018-07-30T11:52:03.118Z,42.38
2018-07-30T11:53:11.782Z,41.02
2018-07-30T11:54:20.539Z,41.62
2018-07-30T11:55:29.088Z,43.48
2018-07-30T11:56:38.011Z,41.25
2018-07-30T11:57:46.666Z,40.47
2018-07-30T11:58:55.329Z,39.49
2018-07-30T12:00:03.976Z,39.78
2018-07-30T12:01:12.661Z,39.98
2018-07-30T12:02:21.286Z,39.78
2018-07-30T12:03:30.217Z,41.96
2018-07-30T12:04:38.863Z,40.39
2018-07-30T12:05:47.523Z,38.53
2018-07-30T12:06:56.189Z,38.04
2018-07-30T12:08:04.836Z,37.77
2018-07-30T12:09:13.495Z,37.96
2018-07-30T12:10:22.156Z,37.96
2018-07-30T12:11:30.816Z,37.18
2018-07-30T12:12:39.474Z,36.9
2018-07-30T12:13:48.124Z,36.61
2018-07-30T12:14:57.047Z,36.61
2018-07-30T12:16:05.699Z,36.61
2018-07-30T12:17:14.628Z,36.61
2018-07-30T12:18:23.276Z,36.82
2018-07-30T12:19:32.201Z,38.18
2018-07-30T12:20:40.853Z,37.1
2018-07-30T12:21:49.572Z,36.63
2018-07-30T12:22:58.169Z,36.24
2018-07-30T12:24:07.121Z,36.24
2018-07-30T12:25:16.380Z,36.25
2018-07-30T12:26:25.303Z,35.08
2018-07-30T12:27:33.965Z,34.41
2018-07-30T12:28:42.612Z,34.2
2018-07-30T12:29:51.267Z,34.51
2018-07-30T12:30:59.939Z,34.21
2018-07-30T12:32:08.625Z,34.7
2018-07-30T12:33:17.243Z,34.41
2018-07-30T12:34:26.173Z,33.82
2018-07-30T12:35:34.821Z,34.01
2018-07-30T12:36:43.759Z,35.88
2018-07-30T12:37:52.675Z,36.27
2018-07-30T12:39:01.341Z,35.19
2018-07-30T12:40:09.990Z,34.21
2018-07-30T12:41:18.657Z,35.68
2018-07-30T12:42:27.308Z,35.88
2018-07-30T12:43:36.239Z,35.08
2018-07-30T12:44:44.889Z,36.33
2018-07-30T12:45:53.555Z,36.24
2018-07-30T12:47:02.214Z,35.65
2018-07-30T12:48:10.873Z,35.76
2018-07-30T12:49:19.534Z,36.45
2018-07-30T12:50:28.235Z,36.16
2018-07-30T12:51:36.868Z,35.08
2018-07-30T12:52:45.497Z,35.86
2018-07-30T12:53:54.165Z,36.16
2018-07-30T12:55:02.817Z,37.41
2018-07-30T12:56:11.484Z,36.72
2018-07-30T12:57:20.134Z,36.43
2018-07-30T12:58:28.802Z,36.72
2018-07-30T12:59:37.451Z,36.63
2018-07-30T13:00:46.110Z,37.12
2018-07-30T13:01:54.768Z,38.18
2018-07-30T13:03:03.491Z,38.57
2018-07-30T13:04:12.418Z,38.28
2018-07-30T13:05:21.071Z,38.08
2018-07-30T13:06:29.741Z,37.59
2018-07-30T13:07:38.656Z,37.57
2018-07-30T13:08:47.579Z,36.59
2018-07-30T13:09:56.240Z,35.83
2018-07-30T13:11:04.898Z,35.34
2018-07-30T13:12:13.551Z,35.34
2018-07-30T13:13:22.213Z,35.34
2018-07-30T13:14:31.132Z,35.73
2018-07-30T13:15:40.059Z,36.71
2018-07-30T13:16:48.712Z,35.73
2018-07-30T13:17:57.372Z,34.77
2018-07-30T13:19:06.028Z,35.94
2018-07-30T13:20:14.949Z,34.94
2018-07-30T13:21:23.609Z,35.04
2018-07-30T13:22:32.263Z,35.35
2018-07-30T13:23:40.918Z,34.86
2018-07-30T13:24:49.848Z,34.86
2018-07-30T13:25:58.504Z,34.96
2018-07-30T13:27:07.159Z,35.16
2018-07-30T13:28:16.082Z,35.35
2018-07-30T13:29:24.738Z,35.04
2018-07-30T13:30:33.664Z,34.96
2018-07-30T13:31:42.319Z,35.35
2018-07-30T13:32:51.351Z,35.45
2018-07-30T13:34:00.019Z,35.45
2018-07-30T13:35:08.952Z,34.98
2018-07-30T13:36:17.876Z,34.1
2018-07-30T13:37:26.536Z,34.3
2018-07-30T13:38:35.456Z,33.9
2018-07-30T13:39:44.124Z,33.72
2018-07-30T13:40:52.780Z,34
2018-07-30T13:42:01.440Z,34.41
2018-07-30T13:43:10.098Z,34.31
2018-07-30T13:44:18.757Z,33.72
2018-07-30T13:45:27.700Z,33.92
2018-07-30T13:46:36.334Z,33.92
2018-07-30T13:47:45.521Z,33.53
2018-07-30T13:48:54.174Z,33.62
2018-07-30T13:50:03.100Z,34.21
2018-07-30T13:51:11.757Z,34.7
2018-07-30T13:52:20.414Z,33.33
2018-07-30T13:53:29.070Z,33.72
2018-07-30T13:54:37.836Z,33.14
2018-07-30T13:55:46.387Z,32.64
2018-07-30T13:56:55.047Z,31.86
2018-07-30T13:58:03.709Z,32.64
2018-07-30T13:59:12.897Z,32.64
2018-07-30T14:00:21.829Z,33.72
2018-07-30T14:01:30.484Z,34.11
2018-07-30T14:02:39.144Z,33.72
2018-07-30T14:03:48.062Z,33.8
2018-07-30T14:04:56.718Z,34.41
2018-07-30T14:06:05.646Z,33.61
2018-07-30T14:07:14.304Z,33.9
2018-07-30T14:08:22.958Z,33.31
2018-07-30T14:09:31.621Z,33.7
2018-07-30T14:10:40.541Z,34.2
2018-07-30T14:11:49.210Z,32.64
2018-07-30T14:12:57.858Z,32.06
2018-07-30T14:14:06.519Z,31.86
2018-07-30T14:15:15.175Z,32.25
2018-07-30T14:16:23.839Z,31.37
2018-07-30T14:17:32.495Z,32.23
2018-07-30T14:18:41.478Z,31.94
2018-07-30T14:19:50.135Z,32.81
2018-07-30T14:20:59.261Z,32.9
2018-07-30T14:22:08.575Z,33.79
2018-07-30T14:23:17.240Z,34.08
2018-07-30T14:24:25.902Z,34.18
2018-07-30T14:25:34.555Z,34.77
2018-07-30T14:26:43.587Z,34.47
2018-07-30T14:27:52.622Z,34.75
2018-07-30T14:29:01.280Z,34.06
2018-07-30T14:30:10.077Z,34.06
2018-07-30T14:31:19.678Z,33.98
2018-07-30T14:32:28.336Z,33.77
2018-07-30T14:33:37.441Z,33.28
2018-07-30T14:34:46.097Z,33.69
2018-07-30T14:35:55.341Z,33.89
2018-07-30T14:37:03.999Z,33.79
2018-07-30T14:38:12.660Z,33.79
2018-07-30T14:39:21.322Z,33.79
2018-07-30T14:40:29.976Z,34.28
2018-07-30T14:41:38.635Z,34.28
2018-07-30T14:42:47.296Z,34.28
2018-07-30T14:43:55.959Z,33.98
2018-07-30T14:45:04.614Z,33.59
2018-07-30T14:46:13.272Z,34.08
2018-07-30T14:47:21.937Z,34
2018-07-30T14:48:30.602Z,34.3
2018-07-30T14:49:39.257Z,33.51